createdAt,value
2022-12-03T00:00:56.723Z,48.28
2022-12-03T00:03:24.443Z,52.70
2022-12-03T00:05:51.815Z,51.17
2022-12-03T00:08:19.441Z,56.05
2022-12-03T00:10:46.839Z,56.53
2022-12-03T00:13:14.266Z,53.47
2022-12-03T00:15:41.493Z,62.08
2022-12-03T00:18:09.021Z,47.55
2022-12-03T00:20:36.238Z,51.60
2022-12-03T00:23:03.780Z,52.42
2022-12-03T00:25:31.013Z,48.30
2022-12-03T00:27:58.580Z,48.50
2022-12-03T00:30:25.769Z,46.38
2022-12-03T00:32:53.391Z,49.65
2022-12-03T00:35:20.668Z,46.20
2022-12-03T00:37:48.309Z,50.03
2022-12-03T00:40:15.876Z,53.10
2022-12-03T00:42:43.431Z,51.25
2022-12-03T00:45:10.964Z,54.13
2022-12-03T00:47:38.629Z,46.38
2022-12-03T00:50:06.956Z,49.28
2022-12-03T00:52:34.519Z,47.97
2022-12-03T00:55:01.761Z,50.92
2022-12-03T00:57:29.345Z,49.45
2022-12-03T00:59:56.558Z,49.80
2022-12-03T01:02:24.120Z,48.88
2022-12-03T01:04:51.898Z,51.55
2022-12-03T01:07:19.729Z,54.33
2022-12-03T01:09:46.880Z,51.20
2022-12-03T01:12:14.485Z,54.80
2022-12-03T01:14:41.791Z,55.60
2022-12-03T01:17:09.277Z,51.20
2022-12-03T01:19:36.776Z,52.28
2022-12-03T01:22:04.619Z,57.17
2022-12-03T01:24:31.906Z,49.67
2022-12-03T01:27:01.032Z,56.63
2022-12-03T01:29:28.288Z,54.05
2022-12-03T01:32:14.321Z,52.25
2022-12-03T01:34:41.557Z,49.65
2022-12-03T01:37:09.694Z,46.60
2022-12-03T01:39:36.977Z,45.45
2022-12-03T01:42:05.463Z,52.70
2022-12-03T01:44:34.983Z,47.30
2022-12-03T01:47:05.944Z,53.83
2022-12-03T01:49:54.345Z,50.67
2022-12-03T01:52:27.428Z,53.50
2022-12-03T01:54:57.129Z,45.08
2022-12-03T01:57:32.256Z,53.63
2022-12-03T02:00:00.672Z,51.13
2022-12-03T02:02:32.548Z,51.78
2022-12-03T02:05:01.599Z,42.92
2022-12-03T02:07:33.866Z,44.58
2022-12-03T02:10:03.740Z,44.25
2022-12-03T02:12:35.884Z,49.85
2022-12-03T02:15:05.340Z,45.90
2022-12-03T02:20:01.865Z,44.92
2022-12-03T02:22:43.756Z,40.67
2022-12-03T02:25:19.469Z,50.30
2022-12-03T02:27:48.143Z,48.63
2022-12-03T02:30:19.367Z,41.05
2022-12-03T02:32:48.060Z,47.28
2022-12-03T02:35:18.750Z,49.95
2022-12-03T02:37:47.725Z,48.45
2022-12-03T02:41:07.820Z,56.20
2022-12-03T02:43:35.738Z,49.15
2022-12-03T02:46:03.983Z,43.75
2022-12-03T02:48:40.097Z,48.38
2022-12-03T02:51:10.368Z,53.50
2022-12-03T02:53:44.577Z,53.75
2022-12-03T02:56:18.312Z,48.38
2022-12-03T02:58:48.694Z,54.67
2022-12-03T03:01:17.195Z,59.83
2022-12-03T03:03:47.016Z,53.20
2022-12-03T03:06:15.685Z,59.47
2022-12-03T03:08:43.746Z,54.10
2022-12-03T03:11:11.754Z,56.38
2022-12-03T03:13:39.954Z,51.53
2022-12-03T03:16:08.472Z,60.17
2022-12-03T03:18:37.033Z,46.92
2022-12-03T03:21:05.290Z,46.15
2022-12-03T03:23:33.076Z,49.85
2022-12-03T03:26:05.541Z,56.95
2022-12-03T03:28:36.055Z,54.30
2022-12-03T03:31:07.249Z,60.65
2022-12-03T03:33:36.720Z,57.17
2022-12-03T03:36:04.502Z,59.00
2022-12-03T03:38:32.817Z,56.13
2022-12-03T03:41:02.890Z,58.13
2022-12-03T03:43:30.997Z,51.75
2022-12-03T03:45:58.455Z,59.78
2022-12-03T03:48:26.449Z,53.33
2022-12-03T03:50:54.078Z,55.95
2022-12-03T03:53:23.266Z,59.35
2022-12-03T03:55:51.334Z,56.45
2022-12-03T03:58:18.863Z,59.08
2022-12-03T04:00:46.787Z,52.67
2022-12-03T04:03:14.554Z,56.00
2022-12-03T04:05:41.923Z,54.03
2022-12-03T04:08:09.717Z,57.60
2022-12-03T04:10:55.566Z,57.85
2022-12-03T04:13:23.249Z,54.08
2022-12-03T04:15:50.501Z,54.55
2022-12-03T04:18:36.849Z,63.30
2022-12-03T04:21:22.837Z,58.97
2022-12-03T04:23:50.396Z,63.28
2022-12-03T04:26:36.289Z,55.13
2022-12-03T04:29:03.872Z,63.55
2022-12-03T04:31:49.580Z,61.38
2022-12-03T04:34:35.863Z,57.78
2022-12-03T04:37:03.610Z,66.05
2022-12-03T04:39:31.478Z,58.10
2022-12-03T04:41:58.666Z,65.50
2022-12-03T04:44:38.296Z,63.63
2022-12-03T04:47:17.668Z,63.83
2022-12-03T04:49:50.542Z,70.57
2022-12-03T04:52:20.396Z,59.78
2022-12-03T04:54:48.200Z,70.50
2022-12-03T04:57:15.513Z,66.85
2022-12-03T04:59:42.933Z,71.70
2022-12-03T05:02:10.368Z,64.50
2022-12-03T05:04:38.086Z,63.15
2022-12-03T05:07:05.325Z,67.68
2022-12-03T05:09:33.259Z,68.80
2022-12-03T05:12:00.843Z,72.65
2022-12-03T05:14:28.246Z,62.53
2022-12-03T05:16:55.444Z,64.53
2022-12-03T05:19:42.962Z,62.97
2022-12-03T05:22:10.154Z,71.38
2022-12-03T05:24:37.790Z,62.20
2022-12-03T05:27:05.015Z,64.20
2022-12-03T05:29:32.675Z,67.03
2022-12-03T05:31:59.957Z,68.80
2022-12-03T05:34:27.515Z,72.00
2022-12-03T05:36:54.633Z,72.07
2022-12-03T05:39:22.171Z,67.82
2022-12-03T05:42:07.897Z,67.22
2022-12-03T05:44:35.363Z,70.32
2022-12-03T05:47:02.598Z,69.57
2022-12-03T05:49:30.197Z,69.38
2022-12-03T05:51:58.827Z,67.85
2022-12-03T05:54:26.662Z,65.15
2022-12-03T05:56:53.890Z,65.57
2022-12-03T05:59:21.680Z,69.80
2022-12-03T06:01:48.964Z,73.22
2022-12-03T06:04:16.365Z,74.13
2022-12-03T06:06:43.475Z,76.22
2022-12-03T06:09:11.155Z,75.13
2022-12-03T06:11:39.986Z,70.40
2022-12-03T06:14:07.758Z,69.75
2022-12-03T06:16:34.994Z,74.07
2022-12-03T06:19:02.735Z,72.68
2022-12-03T06:21:29.975Z,79.15
2022-12-03T06:23:57.595Z,63.45
2022-12-03T06:26:24.720Z,69.60
2022-12-03T06:28:52.524Z,68.25
2022-12-03T06:31:19.799Z,75.25
2022-12-03T06:33:47.349Z,78.68
2022-12-03T06:36:17.703Z,69.90
2022-12-03T06:38:47.378Z,72.65
2022-12-03T06:41:14.567Z,68.20
2022-12-03T06:43:42.065Z,68.90
2022-12-03T06:46:09.260Z,78.90
2022-12-03T06:48:36.863Z,72.40
2022-12-03T06:51:04.369Z,66.88
2022-12-03T06:53:31.979Z,65.53
2022-12-03T06:55:59.958Z,72.53
2022-12-03T06:58:27.644Z,66.30
2022-12-03T07:00:54.822Z,75.70
2022-12-03T07:03:22.458Z,79.43
2022-12-03T07:05:49.619Z,68.03
2022-12-03T07:08:18.261Z,80.70
2022-12-03T07:10:45.782Z,64.55
2022-12-03T07:13:13.505Z,61.30
2022-12-03T07:15:40.979Z,75.45
2022-12-03T07:18:08.771Z,66.13
2022-12-03T07:20:36.168Z,72.80
2022-12-03T07:23:03.905Z,66.47
2022-12-03T07:25:31.379Z,72.53
2022-12-03T07:27:58.949Z,75.60
2022-12-03T07:30:27.873Z,72.10
2022-12-03T07:32:56.813Z,72.90
2022-12-03T07:35:24.427Z,76.15
2022-12-03T07:37:52.081Z,69.43
2022-12-03T07:40:19.278Z,74.97
2022-12-03T07:42:46.919Z,68.05
2022-12-03T07:45:14.332Z,72.85
2022-12-03T07:47:42.191Z,77.22
2022-12-03T07:50:11.077Z,65.80
2022-12-03T07:52:38.731Z,63.10
2022-12-03T07:55:16.277Z,67.88
2022-12-03T07:57:44.317Z,71.78
2022-12-03T08:00:12.568Z,64.70
2022-12-03T08:02:40.640Z,69.72
2022-12-03T08:05:08.304Z,66.35
2022-12-03T08:07:36.021Z,70.95
2022-12-03T08:10:04.874Z,65.00
2022-12-03T08:12:41.883Z,68.80
2022-12-03T08:15:16.172Z,67.80
2022-12-03T08:17:46.053Z,61.70
2022-12-03T08:20:19.618Z,70.40
2022-12-03T08:22:49.754Z,66.05
2022-12-03T08:27:56.681Z,66.32
2022-12-03T08:30:24.108Z,60.40
2022-12-03T08:32:52.941Z,65.10
2022-12-03T08:35:30.984Z,66.18
2022-12-03T08:38:10.487Z,73.30
2022-12-03T08:40:42.446Z,71.43
2022-12-03T08:43:27.759Z,75.13
2022-12-03T08:45:57.172Z,80.75
2022-12-03T08:51:27.547Z,69.55
2022-12-03T08:54:04.546Z,74.72
2022-12-03T08:56:37.119Z,72.47
2022-12-03T08:59:39.402Z,75.63
2022-12-03T09:05:35.150Z,78.80
2022-12-03T09:08:02.865Z,78.28
2022-12-03T09:10:32.122Z,81.45
2022-12-03T09:13:03.651Z,79.63
2022-12-03T09:15:33.577Z,77.18
2022-12-03T09:18:01.032Z,82.70
2022-12-03T09:20:28.593Z,88.70
2022-12-03T09:22:56.003Z,88.30
2022-12-03T09:25:23.739Z,81.20
2022-12-03T09:27:50.939Z,84.25
2022-12-03T09:30:19.188Z,90.80
2022-12-03T09:32:46.880Z,97.95
2022-12-03T09:35:14.979Z,99.43
2022-12-03T09:37:45.575Z,96.43
2022-12-03T09:40:13.851Z,94.40
2022-12-03T09:42:41.837Z,93.18
2022-12-03T09:45:13.047Z,90.88
2022-12-03T09:47:49.596Z,96.82
2022-12-03T09:50:21.888Z,98.15
2022-12-03T09:52:51.159Z,93.75
2022-12-03T09:55:23.105Z,100.55
2022-12-03T09:57:52.939Z,95.28
2022-12-03T10:00:25.399Z,109.45
2022-12-03T10:02:56.326Z,88.78
2022-12-03T10:05:24.872Z,96.18
2022-12-03T10:07:53.484Z,94.13
2022-12-03T10:10:24.109Z,96.43
2022-12-03T10:12:52.445Z,98.43
2022-12-03T10:15:23.228Z,90.88
2022-12-03T10:17:54.824Z,77.30
2022-12-03T10:20:25.449Z,79.47
2022-12-03T10:22:52.977Z,81.43
2022-12-03T10:25:22.597Z,97.30
2022-12-03T10:28:04.086Z,86.28
2022-12-03T10:30:32.246Z,84.15
2022-12-03T10:33:15.704Z,82.60
2022-12-03T10:35:46.452Z,79.38
2022-12-03T10:38:16.682Z,82.07
2022-12-03T10:40:44.861Z,86.97
2022-12-03T10:43:20.973Z,79.57
2022-12-03T10:45:51.936Z,90.80
2022-12-03T10:48:25.668Z,82.97
2022-12-03T10:51:02.742Z,89.40
2022-12-03T10:53:32.251Z,84.40
2022-12-03T10:56:05.066Z,86.90
2022-12-03T10:58:38.765Z,91.07
2022-12-03T11:04:05.194Z,92.40
2022-12-03T11:06:36.037Z,91.65
2022-12-03T11:09:08.883Z,94.45
2022-12-03T11:11:37.408Z,90.93
2022-12-03T11:14:05.706Z,85.78
2022-12-03T11:16:40.118Z,93.18
2022-12-03T11:19:13.763Z,106.25
2022-12-03T11:22:14.442Z,84.70
2022-12-03T11:24:42.085Z,80.55
2022-12-03T11:27:10.179Z,79.90
2022-12-03T11:29:52.851Z,88.93
2022-12-03T11:32:39.277Z,89.22
2022-12-03T11:35:29.070Z,87.82
2022-12-03T11:38:35.648Z,80.40
2022-12-03T11:41:18.400Z,94.93
2022-12-03T11:44:04.331Z,93.10
2022-12-03T11:46:37.818Z,82.88
2022-12-03T11:49:33.131Z,87.45
2022-12-03T11:52:12.017Z,87.55
2022-12-03T11:54:40.220Z,78.18
2022-12-03T12:00:21.783Z,80.53
2022-12-03T12:02:50.293Z,79.28
2022-12-03T12:05:25.857Z,80.13
2022-12-03T12:07:54.329Z,85.32
2022-12-03T12:11:01.050Z,81.63
2022-12-03T12:13:31.347Z,82.95
2022-12-03T12:16:01.238Z,82.55
2022-12-03T12:18:37.641Z,74.40
2022-12-03T12:21:49.079Z,82.75
2022-12-03T12:24:43.730Z,74.53
2022-12-03T12:27:39.469Z,82.43
2022-12-03T12:30:12.982Z,80.18
2022-12-03T12:32:51.069Z,75.47
2022-12-03T12:35:31.037Z,72.18
2022-12-03T12:38:08.875Z,71.97
2022-12-03T12:40:45.259Z,65.85
2022-12-03T12:43:23.736Z,73.30
2022-12-03T12:45:55.496Z,73.43
2022-12-03T12:48:31.445Z,72.75
2022-12-03T12:51:01.384Z,76.78
2022-12-03T12:53:35.732Z,74.32
2022-12-03T12:56:22.150Z,80.43
2022-12-03T12:58:50.670Z,69.28
2022-12-03T13:01:31.957Z,70.55
2022-12-03T13:04:00.362Z,70.45
2022-12-03T13:06:45.256Z,81.55
2022-12-03T13:09:17.984Z,70.93
2022-12-03T13:11:58.240Z,68.97
2022-12-03T13:17:26.266Z,66.80
2022-12-03T13:22:54.366Z,66.53
2022-12-03T13:28:22.840Z,69.05
2022-12-03T13:31:00.522Z,76.53
2022-12-03T13:33:28.145Z,76.18
2022-12-03T13:36:09.809Z,68.35
2022-12-03T13:38:37.614Z,68.40
2022-12-03T13:41:12.013Z,65.03
2022-12-03T13:43:44.635Z,67.75
2022-12-03T13:49:02.192Z,72.53
2022-12-03T13:51:33.742Z,73.25
2022-12-03T13:54:01.293Z,68.18
2022-12-03T13:59:13.928Z,62.13
2022-12-03T14:01:41.926Z,68.35
2022-12-03T14:04:10.566Z,72.53
2022-12-03T14:06:38.659Z,74.80
2022-12-03T14:09:06.407Z,69.03
2022-12-03T14:11:52.762Z,62.40
2022-12-03T14:14:20.472Z,65.00
2022-12-03T14:16:48.734Z,67.45
2022-12-03T14:19:16.204Z,67.57
2022-12-03T14:21:44.052Z,57.13
2022-12-03T14:24:11.768Z,62.72
2022-12-03T14:26:39.971Z,62.88
2022-12-03T14:29:09.088Z,71.70
2022-12-03T14:31:37.082Z,58.05
2022-12-03T14:34:04.673Z,63.58
2022-12-03T14:36:32.605Z,62.25
2022-12-03T14:39:11.780Z,67.53
2022-12-03T14:41:58.111Z,60.97
2022-12-03T14:44:25.927Z,60.72
2022-12-03T14:46:57.473Z,60.17
2022-12-03T14:49:26.159Z,67.80
2022-12-03T14:51:53.852Z,69.20
2022-12-03T14:54:22.124Z,62.10
2022-12-03T14:56:51.342Z,60.45
2022-12-03T14:59:22.998Z,65.05
2022-12-03T15:01:54.601Z,66.90
2022-12-03T15:04:24.668Z,69.05
2022-12-03T15:06:52.413Z,65.72
2022-12-03T15:09:26.407Z,65.07
2022-12-03T15:11:55.360Z,61.67
2022-12-03T15:14:23.303Z,62.00
2022-12-03T15:16:51.920Z,64.07
2022-12-03T15:22:04.848Z,72.85
2022-12-03T15:24:32.131Z,70.85
2022-12-03T15:26:59.930Z,71.05
2022-12-03T15:29:27.712Z,73.57
2022-12-03T15:31:55.706Z,76.97
2022-12-03T15:34:23.525Z,77.43
2022-12-03T15:36:51.652Z,76.85
2022-12-03T15:42:04.880Z,75.38
2022-12-03T15:44:32.087Z,78.22
2022-12-03T15:47:02.108Z,77.03
2022-12-03T15:49:29.532Z,84.20
2022-12-03T15:54:45.225Z,74.13
2022-12-03T15:59:57.611Z,83.13
2022-12-03T16:02:25.408Z,82.72
2022-12-03T16:04:53.325Z,82.80
2022-12-03T16:07:21.716Z,81.97
2022-12-03T16:09:49.342Z,79.68
2022-12-03T16:12:19.155Z,75.35
2022-12-03T16:14:46.590Z,76.70
2022-12-03T16:17:14.277Z,74.55
2022-12-03T16:19:41.833Z,75.75
2022-12-03T16:22:09.511Z,77.32
2022-12-03T16:24:37.027Z,80.05
2022-12-03T16:27:05.053Z,76.40
2022-12-03T16:29:34.967Z,83.30
2022-12-03T16:32:03.078Z,82.38
2022-12-03T16:34:36.138Z,78.90
2022-12-03T16:37:04.930Z,89.03
2022-12-03T16:42:20.619Z,76.25
2022-12-03T16:45:12.367Z,82.88
2022-12-03T16:47:49.792Z,89.97
2022-12-03T16:50:29.360Z,79.20
2022-12-03T16:53:04.613Z,87.40
2022-12-03T16:55:39.938Z,79.00
2022-12-03T16:58:22.521Z,79.57
2022-12-03T17:01:02.198Z,81.20
2022-12-03T17:04:01.288Z,85.32
2022-12-03T17:06:36.625Z,83.72
2022-12-03T17:09:07.158Z,85.35
2022-12-03T17:11:39.624Z,83.18
2022-12-03T17:14:14.192Z,88.32
2022-12-03T17:16:43.475Z,82.15
2022-12-03T17:19:14.162Z,92.47
2022-12-03T17:21:48.681Z,90.40
2022-12-03T17:24:22.239Z,81.10
2022-12-03T17:26:51.672Z,96.97
2022-12-03T17:29:37.782Z,88.90
2022-12-03T17:32:11.160Z,87.03
2022-12-03T17:34:46.918Z,89.60
2022-12-03T17:37:15.979Z,94.60
2022-12-03T17:39:51.739Z,85.43
2022-12-03T17:42:22.819Z,85.43
2022-12-03T17:44:50.978Z,93.55
2022-12-03T17:47:18.465Z,95.35
2022-12-03T17:49:46.204Z,83.68
2022-12-03T17:52:25.580Z,86.55
2022-12-03T17:55:17.752Z,86.82
2022-12-03T17:58:19.959Z,85.80
2022-12-03T18:01:48.796Z,86.10
2022-12-03T18:04:37.161Z,88.32
2022-12-03T18:07:34.320Z,82.20
2022-12-03T18:15:19.718Z,82.43
2022-12-03T18:18:00.007Z,79.15
2022-12-03T18:21:07.594Z,78.72
2022-12-03T18:24:15.840Z,75.45
2022-12-03T18:26:51.510Z,81.97
2022-12-03T18:29:25.308Z,76.60
2022-12-03T18:31:56.997Z,81.85
2022-12-03T18:34:26.281Z,80.45
2022-12-03T18:36:59.993Z,81.68
2022-12-03T18:39:39.046Z,83.18
2022-12-03T18:42:19.938Z,82.63
2022-12-03T18:44:54.196Z,85.93
2022-12-03T18:47:29.878Z,80.53
2022-12-03T18:50:00.351Z,81.03
2022-12-03T18:52:38.710Z,79.47
2022-12-03T18:55:11.911Z,82.28
2022-12-03T18:57:44.967Z,82.03
2022-12-03T19:00:15.555Z,86.80
2022-12-03T19:03:15.281Z,88.65
2022-12-03T19:08:15.231Z,80.22
2022-12-03T19:10:57.923Z,87.30
2022-12-03T19:13:29.303Z,85.20
2022-12-03T19:16:02.932Z,91.03
2022-12-03T19:18:33.051Z,87.68
2022-12-03T19:21:15.682Z,85.30
2022-12-03T19:24:15.985Z,91.25
2022-12-03T19:26:33.783Z,81.95
2022-12-03T19:29:04.285Z,81.95
2022-12-03T19:31:33.683Z,79.70
2022-12-03T19:36:31.361Z,87.53
2022-12-03T19:39:00.774Z,83.32
2022-12-03T19:41:30.914Z,99.18
2022-12-03T19:43:59.837Z,88.00
2022-12-03T19:46:30.712Z,86.03
2022-12-03T19:48:59.235Z,80.68
2022-12-03T19:51:36.037Z,87.40
2022-12-03T19:54:06.768Z,87.18
2022-12-03T19:56:35.116Z,91.60
2022-12-03T19:59:05.396Z,86.38
2022-12-03T20:01:36.323Z,101.50
2022-12-03T20:04:04.413Z,84.65
2022-12-03T20:06:34.520Z,92.35
2022-12-03T20:09:12.259Z,99.10
2022-12-03T20:11:41.400Z,80.13
2022-12-03T20:14:12.484Z,91.03
2022-12-03T20:16:39.973Z,84.65
2022-12-03T20:19:12.282Z,96.40
2022-12-03T20:21:41.128Z,87.85
2022-12-03T20:24:10.214Z,98.13
2022-12-03T20:26:37.752Z,88.50
2022-12-03T20:29:05.727Z,86.07
2022-12-03T20:31:33.535Z,87.95
2022-12-03T20:34:03.253Z,88.55
2022-12-03T20:36:32.376Z,95.63
2022-12-03T20:39:02.993Z,90.32
2022-12-03T20:41:30.727Z,92.85
2022-12-03T20:43:58.560Z,102.47
2022-12-03T20:46:29.570Z,101.43
2022-12-03T20:48:58.538Z,96.13
2022-12-03T20:51:29.802Z,90.93
2022-12-03T20:53:59.040Z,96.03
2022-12-03T20:56:31.843Z,94.30
2022-12-03T20:59:03.060Z,86.57
2022-12-03T21:01:30.924Z,96.47
2022-12-03T21:03:58.869Z,90.45
2022-12-03T21:06:28.169Z,91.35
2022-12-03T21:08:57.602Z,86.00
2022-12-03T21:11:29.656Z,92.97
2022-12-03T21:13:59.125Z,88.18
2022-12-03T21:16:58.962Z,94.15
2022-12-03T21:19:18.449Z,89.03
2022-12-03T21:21:46.151Z,102.40
2022-12-03T21:24:14.076Z,96.85
2022-12-03T21:26:41.967Z,86.88
2022-12-03T21:29:09.853Z,88.15
2022-12-03T21:31:38.605Z,86.03
2022-12-03T21:34:08.530Z,93.53
2022-12-03T21:36:36.291Z,91.38
2022-12-03T21:39:05.538Z,87.75
2022-12-03T21:41:35.201Z,88.80
2022-12-03T21:44:03.869Z,81.88
2022-12-03T21:47:09.875Z,95.43
2022-12-03T21:49:20.398Z,85.55
2022-12-03T21:51:47.728Z,93.38
2022-12-03T21:54:15.845Z,86.38
2022-12-03T21:56:43.399Z,97.00
2022-12-03T21:59:11.328Z,88.97
2022-12-03T22:01:41.660Z,87.00
2022-12-03T22:04:13.360Z,82.55
2022-12-03T22:06:40.995Z,91.25
2022-12-03T22:09:08.735Z,94.65
2022-12-03T22:11:36.097Z,90.18
2022-12-03T22:14:04.963Z,87.13
2022-12-03T22:16:32.580Z,89.00
2022-12-03T22:19:00.259Z,91.35
2022-12-03T22:21:27.796Z,93.95
2022-12-03T22:23:56.117Z,92.15
2022-12-03T22:26:23.422Z,91.10
2022-12-03T22:28:50.910Z,90.82
2022-12-03T22:31:18.819Z,89.50
2022-12-03T22:33:48.575Z,91.05
2022-12-03T22:36:21.126Z,92.50
2022-12-03T22:38:50.544Z,95.07
2022-12-03T22:41:18.858Z,83.38
2022-12-03T22:43:47.820Z,89.75
2022-12-03T22:46:16.066Z,86.22
2022-12-03T22:48:45.611Z,87.88
2022-12-03T22:51:18.745Z,94.55
2022-12-03T22:53:46.584Z,98.53
2022-12-03T22:56:14.114Z,97.40
2022-12-03T22:58:41.736Z,86.72
2022-12-03T23:01:09.098Z,91.40
2022-12-03T23:03:37.385Z,86.72
2022-12-03T23:06:12.261Z,89.57
2022-12-03T23:08:39.914Z,93.38
2022-12-03T23:11:07.879Z,86.10
2022-12-03T23:13:35.541Z,91.65
2022-12-03T23:16:03.678Z,97.40
2022-12-03T23:18:31.519Z,94.15
2022-12-03T23:20:59.274Z,86.32
2022-12-03T23:23:27.724Z,94.68
2022-12-03T23:26:00.805Z,91.97
2022-12-03T23:28:30.702Z,89.80
2022-12-03T23:33:25.892Z,92.22
2022-12-03T23:35:53.471Z,89.43
2022-12-03T23:38:21.052Z,86.90
2022-12-03T23:40:48.638Z,93.88
2022-12-03T23:43:16.586Z,93.20
2022-12-03T23:45:43.786Z,110.13
2022-12-03T23:48:11.291Z,102.95
2022-12-03T23:50:39.889Z,100.00
2022-12-03T23:53:07.462Z,99.37
2022-12-03T23:55:34.748Z,99.13
2022-12-03T23:58:02.257Z,91.18
